createdAt,value
2023-04-30T00:02:01.450Z,9.90
2023-04-30T00:04:28.155Z,9.90
2023-04-30T00:06:55.589Z,9.80
2023-04-30T00:09:22.239Z,9.80
2023-04-30T00:11:48.863Z,9.80
2023-04-30T00:14:15.805Z,9.80
2023-04-30T00:16:42.651Z,9.80
2023-04-30T00:19:09.391Z,9.80
2023-04-30T00:21:36.329Z,9.80
2023-04-30T00:24:03.735Z,9.70
2023-04-30T00:26:30.474Z,9.70
2023-04-30T00:28:57.229Z,9.70
2023-04-30T00:31:23.900Z,9.70
2023-04-30T00:33:51.686Z,9.80
2023-04-30T00:36:18.332Z,9.80
2023-04-30T00:38:44.954Z,9.70
2023-04-30T00:41:11.801Z,9.70
2023-04-30T00:43:38.605Z,9.60
2023-04-30T00:46:06.613Z,9.60
2023-04-30T00:48:34.112Z,9.60
2023-04-30T00:51:03.857Z,9.50
2023-04-30T00:53:31.482Z,9.40
2023-04-30T00:55:58.713Z,9.40
2023-04-30T00:58:26.041Z,9.40
2023-04-30T01:00:52.985Z,9.30
2023-04-30T01:03:20.247Z,9.30
2023-04-30T01:05:46.883Z,9.20
2023-04-30T01:08:13.564Z,9.20
2023-04-30T01:11:02.259Z,9.10
2023-04-30T01:13:44.979Z,9.10
2023-04-30T01:16:27.257Z,9.00
2023-04-30T01:19:01.858Z,9.00
2023-04-30T01:21:32.547Z,9.00
2023-04-30T01:24:24.270Z,9.10
2023-04-30T01:27:01.423Z,9.00
2023-04-30T01:29:30.267Z,9.00
2023-04-30T01:31:56.884Z,9.00
2023-04-30T01:34:23.675Z,9.00
2023-04-30T01:37:05.842Z,9.00
2023-04-30T01:39:58.165Z,9.00
2023-04-30T01:42:45.619Z,9.00
2023-04-30T01:45:15.027Z,9.00
2023-04-30T01:48:12.928Z,9.00
2023-04-30T01:50:53.261Z,9.00
2023-04-30T01:53:35.665Z,9.00
2023-04-30T01:56:04.484Z,9.00
2023-04-30T01:58:32.453Z,9.00
2023-04-30T02:00:59.046Z,8.90
2023-04-30T02:03:25.824Z,8.90
2023-04-30T02:05:53.406Z,8.90
2023-04-30T02:08:21.011Z,8.80
2023-04-30T02:10:47.693Z,8.70
2023-04-30T02:13:14.331Z,8.70
2023-04-30T02:15:41.011Z,8.60
2023-04-30T02:18:07.719Z,8.60
2023-04-30T02:20:34.333Z,8.50
2023-04-30T02:23:00.974Z,8.50
2023-04-30T02:25:27.720Z,8.50
2023-04-30T02:27:54.366Z,8.50
2023-04-30T02:30:21.146Z,8.50
2023-04-30T02:32:48.136Z,8.50
2023-04-30T02:35:14.910Z,8.50
2023-04-30T02:37:41.657Z,8.50
2023-04-30T02:40:08.860Z,8.50
2023-04-30T02:42:35.572Z,8.40
2023-04-30T02:45:03.737Z,8.40
2023-04-30T02:47:30.549Z,8.40
2023-04-30T02:49:57.369Z,8.50
2023-04-30T02:52:25.173Z,8.50
2023-04-30T02:54:51.782Z,8.50
2023-04-30T02:57:18.538Z,8.40
2023-04-30T02:59:46.044Z,8.40
2023-04-30T03:02:13.489Z,8.30
2023-04-30T03:04:40.829Z,8.30
2023-04-30T03:07:07.463Z,8.30
2023-04-30T03:09:34.849Z,8.30
2023-04-30T03:12:02.464Z,8.30
2023-04-30T03:14:29.610Z,8.20
2023-04-30T03:16:56.271Z,8.20
2023-04-30T03:19:25.120Z,8.20
2023-04-30T03:21:52.415Z,8.20
2023-04-30T03:24:19.365Z,8.10
2023-04-30T03:26:46.811Z,8.10
2023-04-30T03:29:13.665Z,8.20
2023-04-30T03:31:40.392Z,8.20
2023-04-30T03:34:07.039Z,8.20
2023-04-30T03:36:34.262Z,8.20
2023-04-30T03:39:01.506Z,8.10
2023-04-30T03:41:28.214Z,8.10
2023-04-30T03:43:54.858Z,8.00
2023-04-30T03:46:22.008Z,7.90
2023-04-30T03:48:48.951Z,7.90
2023-04-30T03:51:15.552Z,7.90
2023-04-30T03:53:42.170Z,7.90
2023-04-30T03:56:08.847Z,7.80
2023-04-30T03:58:35.543Z,7.80
2023-04-30T04:01:02.150Z,7.80
2023-04-30T04:03:28.870Z,7.80
2023-04-30T04:05:55.671Z,7.80
2023-04-30T04:08:22.626Z,7.80
2023-04-30T04:10:49.413Z,7.90
2023-04-30T04:13:16.131Z,7.80
2023-04-30T04:15:42.794Z,7.90
2023-04-30T04:18:09.505Z,7.80
2023-04-30T04:20:36.249Z,7.90
2023-04-30T04:23:03.139Z,7.90
2023-04-30T04:25:29.790Z,7.90
2023-04-30T04:27:56.721Z,7.90
2023-04-30T04:30:23.371Z,7.90
2023-04-30T04:32:53.849Z,7.90
2023-04-30T04:35:20.811Z,7.90
2023-04-30T04:37:47.739Z,7.90
2023-04-30T04:40:14.439Z,8.00
2023-04-30T04:42:41.890Z,8.00
2023-04-30T04:45:09.610Z,8.10
2023-04-30T04:47:36.688Z,8.10
2023-04-30T04:50:03.570Z,8.10
2023-04-30T04:52:30.898Z,8.10
2023-04-30T04:54:57.526Z,8.10
2023-04-30T04:57:24.181Z,8.10
2023-04-30T04:59:50.865Z,8.10
2023-04-30T05:02:17.573Z,8.10
2023-04-30T05:04:44.422Z,8.10
2023-04-30T05:07:11.251Z,8.20
2023-04-30T05:09:37.921Z,8.20
2023-04-30T05:12:04.880Z,8.20
2023-04-30T05:14:31.484Z,8.30
2023-04-30T05:16:58.116Z,8.30
2023-04-30T05:19:24.885Z,8.30
2023-04-30T05:21:51.541Z,8.30
2023-04-30T05:24:18.142Z,8.30
2023-04-30T05:26:44.783Z,8.40
2023-04-30T05:29:12.022Z,8.50
2023-04-30T05:31:38.905Z,8.50
2023-04-30T05:34:05.703Z,8.50
2023-04-30T05:36:32.433Z,8.60
2023-04-30T05:38:59.329Z,8.60
2023-04-30T05:41:26.198Z,8.70
2023-04-30T05:43:52.819Z,8.80
2023-04-30T05:46:19.744Z,8.80
2023-04-30T05:48:46.477Z,8.80
2023-04-30T05:51:13.077Z,8.90
2023-04-30T05:53:39.920Z,9.10
2023-04-30T05:56:06.825Z,9.30
2023-04-30T05:58:33.654Z,9.50
2023-04-30T06:01:00.363Z,9.80
2023-04-30T06:03:26.993Z,10.00
2023-04-30T06:05:54.398Z,10.30
2023-04-30T06:08:21.068Z,10.70
2023-04-30T06:10:47.942Z,11.00
2023-04-30T06:13:14.998Z,11.30
2023-04-30T06:15:41.609Z,11.50
2023-04-30T06:18:08.245Z,11.90
2023-04-30T06:20:34.880Z,12.30
2023-04-30T06:23:02.790Z,12.60
2023-04-30T06:25:29.395Z,12.80
2023-04-30T06:27:56.180Z,13.20
2023-04-30T06:30:22.971Z,13.40
2023-04-30T06:32:49.662Z,13.60
2023-04-30T06:35:16.290Z,13.80
2023-04-30T06:37:42.930Z,14.00
2023-04-30T06:40:09.847Z,14.20
2023-04-30T06:42:36.506Z,14.30
2023-04-30T06:45:03.980Z,14.50
2023-04-30T06:47:34.609Z,14.70
2023-04-30T06:50:01.962Z,14.80
2023-04-30T06:52:28.737Z,15.10
2023-04-30T06:54:55.528Z,15.10
2023-04-30T06:57:22.262Z,15.30
2023-04-30T06:59:48.856Z,15.00
2023-04-30T07:02:16.120Z,15.40
2023-04-30T07:04:42.755Z,15.70
2023-04-30T07:07:09.555Z,16.00
2023-04-30T07:09:36.406Z,16.00
2023-04-30T07:12:04.025Z,16.30
2023-04-30T07:14:30.671Z,16.50
2023-04-30T07:16:57.272Z,16.70
2023-04-30T07:19:25.253Z,16.80
2023-04-30T07:21:51.877Z,17.00
2023-04-30T07:24:18.508Z,17.10
2023-04-30T07:26:45.210Z,17.20
2023-04-30T07:29:11.974Z,17.40
2023-04-30T07:31:38.621Z,17.60
2023-04-30T07:34:05.372Z,17.60
2023-04-30T07:36:32.605Z,17.60
2023-04-30T07:38:59.202Z,17.60
2023-04-30T07:41:26.214Z,17.70
2023-04-30T07:43:53.137Z,17.80
2023-04-30T07:46:19.833Z,17.60
2023-04-30T07:48:46.525Z,18.00
2023-04-30T07:51:13.120Z,18.10
2023-04-30T07:53:39.743Z,18.30
2023-04-30T07:56:07.297Z,18.30
2023-04-30T07:58:34.294Z,18.20
2023-04-30T08:01:00.955Z,18.20
2023-04-30T08:03:27.729Z,18.50
2023-04-30T08:05:54.450Z,18.70
2023-04-30T08:08:21.206Z,18.90
2023-04-30T08:10:47.864Z,18.70
2023-04-30T08:13:14.492Z,18.40
2023-04-30T08:15:42.344Z,18.50
2023-04-30T08:18:09.485Z,18.90
2023-04-30T08:20:38.017Z,19.10
2023-04-30T08:23:05.756Z,19.00
2023-04-30T08:25:32.615Z,18.90
2023-04-30T08:27:59.738Z,18.60
2023-04-30T08:30:26.431Z,18.80
2023-04-30T08:32:55.301Z,18.90
2023-04-30T08:35:23.560Z,18.90
2023-04-30T08:37:50.384Z,18.90
2023-04-30T08:40:17.433Z,18.90
2023-04-30T08:42:50.136Z,19.10
2023-04-30T08:45:17.483Z,18.70
2023-04-30T08:47:45.532Z,18.70
2023-04-30T08:50:12.280Z,18.90
2023-04-30T08:52:40.111Z,19.30
2023-04-30T08:55:10.890Z,19.40
2023-04-30T08:57:38.594Z,19.30
2023-04-30T09:00:06.984Z,19.50
2023-04-30T09:02:34.702Z,19.60
2023-04-30T09:05:01.534Z,19.70
2023-04-30T09:07:32.431Z,19.70
2023-04-30T09:10:00.557Z,19.50
2023-04-30T09:12:27.161Z,19.60
2023-04-30T09:15:05.358Z,19.40
2023-04-30T09:17:34.115Z,19.60
2023-04-30T09:20:11.680Z,19.50
2023-04-30T09:22:40.842Z,19.40
2023-04-30T09:25:08.558Z,19.50
2023-04-30T09:27:35.244Z,19.60
2023-04-30T09:30:02.090Z,19.80
2023-04-30T09:32:28.963Z,20.10
2023-04-30T09:34:56.028Z,20.10
2023-04-30T09:37:34.585Z,19.60
2023-04-30T09:40:01.383Z,19.20
2023-04-30T09:42:28.005Z,19.30
2023-04-30T09:44:54.910Z,19.50
2023-04-30T09:47:21.712Z,19.40
2023-04-30T09:49:52.179Z,19.30
2023-04-30T09:52:20.325Z,19.20
2023-04-30T09:54:47.736Z,19.00
2023-04-30T09:57:15.817Z,19.10
2023-04-30T09:59:46.814Z,19.20
2023-04-30T10:02:17.157Z,19.50
2023-04-30T10:04:45.280Z,19.70
2023-04-30T10:07:22.251Z,19.50
2023-04-30T10:09:50.991Z,19.20
2023-04-30T10:12:24.303Z,19.20
2023-04-30T10:15:05.893Z,19.10
2023-04-30T10:17:40.803Z,19.00
2023-04-30T10:20:11.045Z,18.90
2023-04-30T10:22:38.319Z,18.80
2023-04-30T10:25:06.045Z,18.70
2023-04-30T10:27:34.415Z,18.70
2023-04-30T10:30:01.598Z,18.80
2023-04-30T10:32:46.919Z,18.80
2023-04-30T10:35:20.886Z,19.00
2023-04-30T10:38:01.332Z,19.40
2023-04-30T10:40:28.060Z,19.40
2023-04-30T10:42:55.682Z,19.30
2023-04-30T10:45:39.465Z,19.30
2023-04-30T10:48:06.928Z,19.40
2023-04-30T10:50:39.419Z,19.30
2023-04-30T10:53:07.007Z,19.10
2023-04-30T10:55:33.826Z,19.10
2023-04-30T10:58:00.545Z,19.10
2023-04-30T11:00:28.921Z,19.10
2023-04-30T11:03:03.762Z,18.90
2023-04-30T11:05:38.147Z,18.90
2023-04-30T11:08:06.001Z,18.80
2023-04-30T11:10:34.595Z,18.60
2023-04-30T11:13:06.409Z,18.80
2023-04-30T11:15:41.671Z,18.80
2023-04-30T11:18:09.480Z,18.70
2023-04-30T11:20:41.777Z,18.70
2023-04-30T11:23:19.247Z,18.90
2023-04-30T11:25:55.223Z,18.90
2023-04-30T11:28:24.985Z,18.80
2023-04-30T11:30:53.649Z,18.70
2023-04-30T11:33:21.848Z,18.80
2023-04-30T11:35:53.097Z,18.80
2023-04-30T11:38:22.870Z,18.70
2023-04-30T11:40:50.884Z,18.70
2023-04-30T11:43:28.181Z,18.80
2023-04-30T11:46:17.333Z,18.90
2023-04-30T11:48:45.807Z,18.90
2023-04-30T11:51:21.586Z,18.90
2023-04-30T11:53:52.050Z,18.90
2023-04-30T11:56:23.994Z,18.60
2023-04-30T11:58:52.434Z,18.50
2023-04-30T12:01:20.825Z,18.60
2023-04-30T12:03:49.305Z,18.80
2023-04-30T12:06:27.781Z,19.00
2023-04-30T12:08:59.051Z,18.90
2023-04-30T12:11:27.792Z,18.90
2023-04-30T12:14:04.965Z,18.90
2023-04-30T12:16:42.662Z,19.00
2023-04-30T12:19:09.625Z,19.20
2023-04-30T12:21:36.800Z,19.30
2023-04-30T12:24:03.821Z,19.40
2023-04-30T12:26:38.683Z,19.20
2023-04-30T12:29:08.980Z,19.20
2023-04-30T12:31:37.835Z,19.10
2023-04-30T12:34:07.344Z,19.10
2023-04-30T12:36:36.584Z,19.20
2023-04-30T12:39:08.904Z,19.10
2023-04-30T12:41:46.750Z,19.20
2023-04-30T12:44:20.711Z,19.30
2023-04-30T12:46:49.422Z,19.40
2023-04-30T12:49:30.421Z,19.50
2023-04-30T12:52:11.394Z,19.40
2023-04-30T12:54:39.382Z,19.20
2023-04-30T12:57:08.716Z,18.90
2023-04-30T12:59:37.181Z,18.80
2023-04-30T13:02:12.727Z,18.90
2023-04-30T13:04:43.632Z,19.00
2023-04-30T13:07:11.231Z,19.20
2023-04-30T13:09:38.561Z,19.30
2023-04-30T13:12:06.311Z,19.40
2023-04-30T13:14:33.771Z,19.40
2023-04-30T13:17:01.319Z,19.50
2023-04-30T13:19:28.969Z,19.60
2023-04-30T13:21:56.262Z,19.50
2023-04-30T13:24:22.953Z,19.50
2023-04-30T13:26:49.575Z,19.40
2023-04-30T13:29:16.266Z,19.50
2023-04-30T13:31:42.924Z,19.60
2023-04-30T13:34:09.929Z,19.70
2023-04-30T13:36:36.859Z,19.90
2023-04-30T13:39:04.689Z,20.00
2023-04-30T13:41:31.385Z,20.20
2023-04-30T13:43:59.888Z,20.10
2023-04-30T13:46:26.562Z,20.20
2023-04-30T13:48:53.395Z,20.00
2023-04-30T13:51:20.289Z,19.90
2023-04-30T13:53:46.935Z,19.90
2023-04-30T13:56:15.280Z,19.80
2023-04-30T13:58:42.037Z,19.70
2023-04-30T14:01:09.587Z,19.70
2023-04-30T14:03:36.338Z,19.60
2023-04-30T14:06:03.086Z,19.70
2023-04-30T14:08:31.699Z,19.60
2023-04-30T14:10:58.514Z,19.60
2023-04-30T14:13:25.588Z,19.70
2023-04-30T14:15:52.228Z,19.70
2023-04-30T14:18:22.423Z,19.60
2023-04-30T14:20:49.349Z,19.60
2023-04-30T14:23:16.173Z,19.60
2023-04-30T14:25:42.801Z,19.30
2023-04-30T14:28:09.435Z,19.10
2023-04-30T14:30:36.439Z,19.10
2023-04-30T14:33:03.226Z,19.00
2023-04-30T14:35:30.233Z,18.90
2023-04-30T14:37:56.875Z,18.90
2023-04-30T14:40:23.492Z,18.90
2023-04-30T14:42:50.447Z,19.00
2023-04-30T14:45:17.063Z,19.10
2023-04-30T14:47:43.766Z,19.20
2023-04-30T14:50:10.836Z,19.20
2023-04-30T14:52:38.229Z,19.20
2023-04-30T14:55:05.306Z,19.30
2023-04-30T14:57:33.491Z,19.40
2023-04-30T15:00:00.883Z,19.40
2023-04-30T15:02:27.828Z,19.20
2023-04-30T15:04:54.537Z,19.10
2023-04-30T15:07:21.339Z,19.10
2023-04-30T15:09:47.960Z,19.00
2023-04-30T15:12:14.692Z,18.80
2023-04-30T15:14:41.542Z,18.80
2023-04-30T15:17:08.330Z,18.70
2023-04-30T15:19:35.084Z,18.70
2023-04-30T15:22:01.904Z,18.60
2023-04-30T15:24:28.522Z,18.70
2023-04-30T15:26:55.422Z,18.70
2023-04-30T15:29:22.182Z,18.90
2023-04-30T15:31:51.840Z,18.90
2023-04-30T15:34:18.769Z,18.90
2023-04-30T15:36:45.472Z,18.90
2023-04-30T15:39:12.151Z,19.00
2023-04-30T15:41:38.964Z,19.10
2023-04-30T15:44:05.610Z,19.10
2023-04-30T15:46:33.640Z,19.00
2023-04-30T15:49:00.919Z,19.00
2023-04-30T15:51:29.259Z,18.80
2023-04-30T15:53:56.341Z,18.70
2023-04-30T15:56:25.742Z,18.50
2023-04-30T15:58:54.010Z,18.40
2023-04-30T16:01:21.109Z,18.40
2023-04-30T16:03:48.294Z,18.40
2023-04-30T16:06:16.075Z,18.40
2023-04-30T16:08:43.959Z,18.40
2023-04-30T16:11:11.596Z,18.40
2023-04-30T16:13:38.244Z,18.40
2023-04-30T16:16:08.092Z,18.40
2023-04-30T16:18:35.215Z,18.40
2023-04-30T16:21:02.043Z,18.50
2023-04-30T16:23:28.658Z,18.60
2023-04-30T16:25:56.234Z,18.70
2023-04-30T16:28:23.487Z,18.80
2023-04-30T16:30:50.322Z,18.80
2023-04-30T16:33:16.956Z,18.80
2023-04-30T16:35:43.690Z,18.70
2023-04-30T16:38:10.780Z,18.70
2023-04-30T16:40:37.449Z,18.70
2023-04-30T16:43:06.096Z,18.70
2023-04-30T16:45:33.278Z,18.70
2023-04-30T16:48:00.342Z,18.80
2023-04-30T16:50:27.221Z,18.80
2023-04-30T16:52:53.926Z,18.90
2023-04-30T16:55:20.665Z,18.90
2023-04-30T16:57:47.346Z,18.90
2023-04-30T17:00:14.446Z,18.80
2023-04-30T17:02:42.440Z,18.70
2023-04-30T17:05:09.761Z,18.70
2023-04-30T17:07:36.402Z,18.70
2023-04-30T17:10:04.523Z,18.70
2023-04-30T17:12:31.149Z,18.60
2023-04-30T17:14:57.810Z,18.50
2023-04-30T17:17:24.482Z,18.50
2023-04-30T17:19:51.073Z,18.40
2023-04-30T17:22:19.842Z,18.40
2023-04-30T17:24:46.855Z,18.30
2023-04-30T17:27:13.466Z,18.10
2023-04-30T17:29:40.382Z,18.10
2023-04-30T17:32:07.126Z,18.00
2023-04-30T17:34:33.714Z,18.00
2023-04-30T17:37:00.380Z,18.00
2023-04-30T17:39:28.663Z,18.00
2023-04-30T17:41:55.264Z,17.90
2023-04-30T17:44:21.851Z,17.90
2023-04-30T17:46:48.575Z,17.90
2023-04-30T17:49:15.350Z,17.90
2023-04-30T17:51:41.978Z,17.80
2023-04-30T17:54:08.639Z,17.80
2023-04-30T17:56:35.262Z,17.70
2023-04-30T17:59:02.008Z,17.60
2023-04-30T18:01:28.769Z,17.60
2023-04-30T18:03:55.713Z,17.60
2023-04-30T18:06:22.494Z,17.50
2023-04-30T18:08:49.297Z,17.50
2023-04-30T18:11:16.342Z,17.50
2023-04-30T18:13:43.030Z,17.40
2023-04-30T18:16:10.502Z,17.40
2023-04-30T18:18:37.312Z,17.30
2023-04-30T18:21:04.038Z,17.30
2023-04-30T18:23:30.708Z,17.30
2023-04-30T18:25:57.674Z,17.30
2023-04-30T18:28:24.600Z,17.20
2023-04-30T18:30:51.522Z,17.10
2023-04-30T18:33:18.237Z,17.00
2023-04-30T18:35:49.548Z,16.90
2023-04-30T18:38:16.320Z,16.70
2023-04-30T18:40:42.943Z,16.60
2023-04-30T18:43:09.678Z,16.50
2023-04-30T18:45:36.533Z,16.40
2023-04-30T18:48:03.269Z,16.30
2023-04-30T18:50:29.904Z,16.20
2023-04-30T18:52:56.494Z,16.10
2023-04-30T18:55:23.971Z,16.00
2023-04-30T18:57:50.563Z,15.90
2023-04-30T19:00:17.268Z,15.90
2023-04-30T19:02:43.966Z,15.80
2023-04-30T19:05:10.772Z,15.70
2023-04-30T19:07:37.592Z,15.70
2023-04-30T19:10:04.699Z,15.60
2023-04-30T19:12:31.328Z,15.50
2023-04-30T19:14:58.683Z,15.50
2023-04-30T19:17:25.510Z,15.40
2023-04-30T19:19:52.759Z,15.40
2023-04-30T19:22:19.517Z,15.30
2023-04-30T19:24:46.162Z,15.30
2023-04-30T19:27:12.816Z,15.20
2023-04-30T19:29:39.592Z,15.20
2023-04-30T19:32:06.938Z,15.10
2023-04-30T19:34:34.390Z,15.00
2023-04-30T19:37:01.262Z,15.00
2023-04-30T19:39:31.595Z,14.90
2023-04-30T19:41:58.820Z,14.80
2023-04-30T19:44:25.924Z,14.80
2023-04-30T19:46:52.646Z,14.70
2023-04-30T19:49:19.458Z,14.60
2023-04-30T19:51:46.102Z,14.60
2023-04-30T19:54:14.149Z,14.60
2023-04-30T19:56:44.500Z,14.50
2023-04-30T19:59:11.257Z,14.50
2023-04-30T20:01:38.349Z,14.40
2023-04-30T20:04:05.440Z,14.40
2023-04-30T20:06:32.727Z,14.40
2023-04-30T20:09:00.552Z,14.30
2023-04-30T20:11:27.796Z,14.30
2023-04-30T20:13:55.059Z,14.30
2023-04-30T20:16:21.818Z,14.20
2023-04-30T20:18:48.759Z,14.20
2023-04-30T20:21:17.086Z,14.20
2023-04-30T20:23:44.721Z,14.20
2023-04-30T20:26:11.355Z,14.20
2023-04-30T20:28:38.523Z,14.20
2023-04-30T20:31:06.798Z,14.10
2023-04-30T20:33:33.614Z,14.00
2023-04-30T20:36:00.286Z,14.10
2023-04-30T20:38:26.903Z,14.10
2023-04-30T20:40:53.511Z,14.10
2023-04-30T20:43:20.081Z,14.10
2023-04-30T20:45:47.486Z,14.10
2023-04-30T20:48:14.429Z,14.00
2023-04-30T20:50:41.264Z,14.00
2023-04-30T20:53:10.776Z,14.00
2023-04-30T20:55:37.968Z,14.00
2023-04-30T20:58:04.719Z,13.90
2023-04-30T21:00:31.390Z,13.90
2023-04-30T21:02:58.082Z,13.80
2023-04-30T21:05:24.717Z,13.80
2023-04-30T21:07:52.212Z,13.70
2023-04-30T21:10:18.890Z,13.60
2023-04-30T21:12:45.513Z,13.70
2023-04-30T21:15:12.810Z,13.60
2023-04-30T21:17:39.489Z,13.70
2023-04-30T21:20:06.809Z,13.60
2023-04-30T21:22:33.730Z,13.50
2023-04-30T21:25:00.408Z,13.50
2023-04-30T21:27:27.824Z,13.40
2023-04-30T21:29:54.755Z,13.40
2023-04-30T21:32:21.647Z,13.40
2023-04-30T21:34:48.313Z,13.40
2023-04-30T21:37:17.143Z,13.40
2023-04-30T21:39:44.161Z,13.30
2023-04-30T21:42:10.813Z,13.20
2023-04-30T21:44:37.486Z,13.10
2023-04-30T21:47:04.129Z,13.10
2023-04-30T21:49:31.256Z,13.10
2023-04-30T21:51:58.111Z,13.10
2023-04-30T21:54:24.737Z,13.10
2023-04-30T21:56:51.390Z,13.10
2023-04-30T21:59:18.154Z,13.00
2023-04-30T22:01:44.840Z,13.00
2023-04-30T22:04:11.553Z,13.00
2023-04-30T22:06:38.370Z,13.00
2023-04-30T22:09:05.008Z,13.00
2023-04-30T22:11:31.878Z,13.00
2023-04-30T22:13:58.839Z,13.00
2023-04-30T22:16:25.589Z,13.00
2023-04-30T22:18:52.252Z,13.00
2023-04-30T22:21:18.853Z,13.00
2023-04-30T22:23:45.625Z,13.00
2023-04-30T22:26:12.365Z,13.00
2023-04-30T22:28:38.963Z,13.10
2023-04-30T22:31:05.680Z,13.00
2023-04-30T22:33:36.528Z,13.00
2023-04-30T22:36:07.989Z,13.00
2023-04-30T22:38:35.204Z,13.00
2023-04-30T22:41:03.638Z,13.10
2023-04-30T22:43:30.886Z,13.10
2023-04-30T22:45:58.911Z,13.00
2023-04-30T22:48:27.512Z,13.10
2023-04-30T22:50:55.372Z,13.10
2023-04-30T22:53:22.133Z,13.10
2023-04-30T22:55:49.025Z,13.10
2023-04-30T22:58:15.943Z,13.10
2023-04-30T23:00:42.666Z,13.10
2023-04-30T23:03:09.375Z,13.10
2023-04-30T23:05:36.074Z,13.30
2023-04-30T23:08:04.268Z,13.30
2023-04-30T23:10:31.035Z,13.30
2023-04-30T23:12:58.702Z,13.30
2023-04-30T23:15:26.238Z,13.30
2023-04-30T23:17:54.273Z,13.30
2023-04-30T23:20:22.454Z,13.30
2023-04-30T23:22:49.328Z,13.30
2023-04-30T23:25:16.764Z,13.40
2023-04-30T23:27:44.868Z,13.30
2023-04-30T23:30:11.725Z,13.30
2023-04-30T23:32:38.527Z,13.40
2023-04-30T23:35:07.499Z,13.30
2023-04-30T23:37:34.597Z,13.30
2023-04-30T23:40:01.415Z,13.20
2023-04-30T23:42:28.026Z,13.20
2023-04-30T23:44:54.622Z,13.20
2023-04-30T23:47:21.221Z,13.30
2023-04-30T23:49:48.014Z,13.20
2023-04-30T23:52:14.644Z,13.10
2023-04-30T23:54:41.286Z,13.10
2023-04-30T23:57:08.027Z,13.10
2023-04-30T23:59:34.632Z,13.10
